createdAt,value
2019-02-18T02:48:37.001Z,75.57
2019-02-18T04:06:17.256Z,77.60
2019-02-18T07:50:09.309Z,98.33
2019-02-18T07:52:41.922Z,99.47
2019-02-18T07:55:13.048Z,122.07
2019-02-18T07:57:45.897Z,92.40
2019-02-18T08:00:17.258Z,83.00
2019-02-18T08:02:50.063Z,99.30
2019-02-18T08:05:21.133Z,91.17
2019-02-18T08:07:51.734Z,103.93
2019-02-18T08:10:23.029Z,92.10
2019-02-18T08:12:54.587Z,83.90
2019-02-18T08:15:25.463Z,105.00
2019-02-18T08:17:57.375Z,113.83
2019-02-18T08:20:28.684Z,106.30
2019-02-18T08:22:59.968Z,94.77
2019-02-18T08:25:33.046Z,127.27
2019-02-18T08:28:04.791Z,112.10
2019-02-18T08:30:36.265Z,137.40
2019-02-18T08:33:06.954Z,132.33
2019-02-18T08:35:38.545Z,170.00
2019-02-18T08:38:09.609Z,194.50
2019-02-18T08:40:40.897Z,184.10
2019-02-18T08:43:12.099Z,154.90
2019-02-18T08:45:44.123Z,163.97
2019-02-18T08:48:15.427Z,152.13
2019-02-18T08:50:47.207Z,155.77
2019-02-18T08:53:18.022Z,128.23
2019-02-18T08:55:49.271Z,163.10
2019-02-18T08:58:20.078Z,156.83
2019-02-18T09:01:01.996Z,164.23
2019-02-18T09:03:26.130Z,179.87
2019-02-18T09:05:57.917Z,161.10
2019-02-18T09:08:29.353Z,184.50
2019-02-18T09:11:03.319Z,183.50
2019-02-18T09:13:36.526Z,188.93
2019-02-18T09:16:08.085Z,178.60
2019-02-18T09:18:39.688Z,177.87
2019-02-18T09:21:11.397Z,236.83
2019-02-18T09:24:06.322Z,188.40
2019-02-18T09:26:38.418Z,193.33
2019-02-18T09:29:09.360Z,177.03
2019-02-18T09:31:42.907Z,165.03
2019-02-18T09:34:14.988Z,194.63
2019-02-18T09:36:47.385Z,185.77
2019-02-18T09:39:30.564Z,187.33
2019-02-18T09:41:53.613Z,184.43
2019-02-18T09:44:25.525Z,186.77
2019-02-18T09:46:56.739Z,172.40
2019-02-18T09:49:28.045Z,201.23
2019-02-18T09:51:59.623Z,198.87
2019-02-18T09:54:31.281Z,167.80
2019-02-18T09:57:03.051Z,184.70
2019-02-18T09:59:35.732Z,198.67
2019-02-18T10:02:07.202Z,157.33
2019-02-18T10:04:40.080Z,182.53
2019-02-18T10:07:11.679Z,146.57
2019-02-18T10:09:43.349Z,151.47
2019-02-18T10:12:18.379Z,172.73
2019-02-18T10:14:47.462Z,159.13
2019-02-18T10:17:18.572Z,149.67
2019-02-18T10:19:50.186Z,165.30
2019-02-18T10:22:21.653Z,182.20
2019-02-18T10:24:52.655Z,149.80
2019-02-18T10:27:23.861Z,165.30
2019-02-18T10:29:54.753Z,131.53
2019-02-18T10:32:25.953Z,148.00
2019-02-18T10:34:57.498Z,134.13
2019-02-18T10:37:28.338Z,134.63
2019-02-18T10:40:00.441Z,133.27
2019-02-18T10:42:32.130Z,123.07
2019-02-18T10:45:03.713Z,126.63
2019-02-18T10:47:36.535Z,114.13
2019-02-18T10:50:08.791Z,116.23
2019-02-18T10:52:42.704Z,105.77
2019-02-18T10:55:13.622Z,101.90
2019-02-18T10:57:44.954Z,107.13
2019-02-18T11:00:15.985Z,102.63
2019-02-18T11:02:48.176Z,103.33
2019-02-18T11:05:18.967Z,104.70
2019-02-18T11:07:49.466Z,95.10
2019-02-18T11:10:20.773Z,111.77
2019-02-18T11:12:52.372Z,86.53
2019-02-18T11:15:23.864Z,85.87
2019-02-18T11:17:55.272Z,92.47
2019-02-18T11:20:26.733Z,92.27
2019-02-18T11:22:57.532Z,89.90
2019-02-18T11:25:29.141Z,90.40
2019-02-18T11:28:00.623Z,83.83
2019-02-18T11:30:32.707Z,92.17
2019-02-18T11:33:04.306Z,85.60
2019-02-18T11:35:36.285Z,79.83
2019-02-18T11:38:07.677Z,83.20
2019-02-18T11:40:39.544Z,80.90
2019-02-18T11:43:11.024Z,75.87
2019-02-18T11:45:43.693Z,76.77
2019-02-18T11:48:15.372Z,76.37
2019-02-18T11:50:46.952Z,75.00
2019-02-18T11:53:19.430Z,71.87
2019-02-18T11:55:50.777Z,75.03
2019-02-18T11:58:22.485Z,76.47
2019-02-18T12:00:54.036Z,73.27
2019-02-18T12:03:25.359Z,72.07
2019-02-18T12:05:56.714Z,67.17
2019-02-18T12:08:28.531Z,70.63
2019-02-18T12:11:00.094Z,71.97
2019-02-18T12:13:32.161Z,86.30
2019-02-18T12:16:03.639Z,85.53
2019-02-18T12:18:35.415Z,77.60
2019-02-18T12:21:06.766Z,74.80
2019-02-18T12:23:38.205Z,77.77
2019-02-18T12:26:10.151Z,70.97
2019-02-18T12:28:42.103Z,73.90
2019-02-18T12:31:13.583Z,82.00
2019-02-18T12:33:45.494Z,76.43
2019-02-18T12:36:17.011Z,82.63
2019-02-18T12:38:50.067Z,79.87
2019-02-18T12:41:21.773Z,72.57
2019-02-18T12:43:53.403Z,78.07
2019-02-18T12:46:25.580Z,75.83
2019-02-18T12:48:57.176Z,72.77
2019-02-18T12:51:28.777Z,73.67
2019-02-18T12:54:09.483Z,76.47
2019-02-18T12:56:34.804Z,77.57
2019-02-18T12:59:06.152Z,78.30
2019-02-18T13:01:37.667Z,75.00
2019-02-18T13:04:09.028Z,77.03
2019-02-18T13:06:42.110Z,71.77
2019-02-18T13:09:13.835Z,76.93
2019-02-18T13:11:46.106Z,80.93
2019-02-18T13:14:19.042Z,75.50
2019-02-18T13:16:51.238Z,74.83
2019-02-18T13:19:22.669Z,79.17
2019-02-18T13:21:54.080Z,77.60
2019-02-18T13:24:26.048Z,75.83
2019-02-18T13:26:57.484Z,76.07
2019-02-18T13:29:28.878Z,75.93
2019-02-18T13:32:01.797Z,84.57
2019-02-18T13:34:33.054Z,78.23
2019-02-18T13:37:05.341Z,76.33
2019-02-18T13:39:37.832Z,77.87
2019-02-18T13:42:09.889Z,78.70
2019-02-18T13:44:42.876Z,73.73
2019-02-18T13:47:14.266Z,76.10
2019-02-18T13:49:45.726Z,75.80
2019-02-18T13:52:17.109Z,74.70
2019-02-18T13:54:48.524Z,78.47
2019-02-18T13:57:19.949Z,78.00
2019-02-18T13:59:52.068Z,74.30
2019-02-18T14:02:23.477Z,71.53
2019-02-18T14:04:55.083Z,70.83
2019-02-18T14:07:26.507Z,72.77
2019-02-18T14:09:58.368Z,70.03
2019-02-18T14:12:31.822Z,68.17
2019-02-18T14:15:04.981Z,66.30
2019-02-18T14:17:36.522Z,70.53
2019-02-18T14:20:10.705Z,69.60
2019-02-18T14:22:43.830Z,72.67
2019-02-18T14:25:15.919Z,76.87
2019-02-18T14:27:47.342Z,74.00
2019-02-18T14:30:18.986Z,73.80
2019-02-18T14:32:50.832Z,72.20
2019-02-18T14:35:23.284Z,68.90
2019-02-18T14:37:56.538Z,78.33
2019-02-18T14:40:28.564Z,76.47
2019-02-18T14:43:01.065Z,83.87
2019-02-18T14:45:32.837Z,76.47
2019-02-18T14:48:04.184Z,80.30
2019-02-18T14:50:35.892Z,80.37
2019-02-18T14:53:08.060Z,73.10
2019-02-18T14:55:40.286Z,73.13
2019-02-18T14:58:12.666Z,73.60
2019-02-18T15:00:45.305Z,81.67
2019-02-18T15:03:18.812Z,76.93
2019-02-18T15:05:50.369Z,84.33
2019-02-18T15:08:23.065Z,79.27
2019-02-18T15:10:55.041Z,80.83
2019-02-18T15:13:27.021Z,81.20
2019-02-18T15:15:58.516Z,76.70
2019-02-18T15:18:30.069Z,85.93
2019-02-18T15:21:01.676Z,85.83
2019-02-18T15:23:34.725Z,90.73
2019-02-18T15:26:06.562Z,93.97
2019-02-18T15:28:40.777Z,92.93
2019-02-18T15:31:12.831Z,84.40
2019-02-18T15:33:49.805Z,90.47
2019-02-18T15:36:32.407Z,90.53
2019-02-18T15:39:12.703Z,86.93
2019-02-18T15:41:49.764Z,96.40
2019-02-18T15:44:51.652Z,92.40
2019-02-18T15:47:13.674Z,89.77
2019-02-18T15:49:55.088Z,90.90
2019-02-18T15:52:51.566Z,94.70
2019-02-18T15:58:11.680Z,88.73
2019-02-18T16:01:15.872Z,91.03
2019-02-18T16:04:17.298Z,92.60
2019-02-18T16:06:39.950Z,92.53
2019-02-18T16:09:14.575Z,100.60
2019-02-18T16:11:57.673Z,92.53
2019-02-18T16:14:35.536Z,90.33
2019-02-18T16:17:13.098Z,97.63
2019-02-18T16:19:50.678Z,96.23
2019-02-18T16:22:31.273Z,95.07
2019-02-18T16:25:02.816Z,102.13
2019-02-18T16:27:34.768Z,90.23
2019-02-18T16:30:09.747Z,98.70
2019-02-18T16:32:45.588Z,94.80
2019-02-18T16:35:16.920Z,102.90
2019-02-18T16:37:49.784Z,92.37
2019-02-18T16:40:22.141Z,107.30
2019-02-18T16:42:59.048Z,106.17
2019-02-18T16:45:29.154Z,105.37
2019-02-18T16:48:00.627Z,102.20
2019-02-18T16:50:31.378Z,101.17
2019-02-18T16:53:08.425Z,95.73
2019-02-18T16:55:39.829Z,97.67
2019-02-18T16:58:11.624Z,103.30
2019-02-18T17:00:44.629Z,100.40
2019-02-18T17:03:16.016Z,104.70
2019-02-18T17:05:47.533Z,97.40
2019-02-18T17:08:19.764Z,105.33
2019-02-18T17:10:51.273Z,105.20
2019-02-18T17:13:22.362Z,107.47
2019-02-18T17:15:54.630Z,121.83
2019-02-18T17:18:26.827Z,111.23
2019-02-18T17:20:58.325Z,117.27
2019-02-18T17:23:29.135Z,108.17
2019-02-18T17:26:02.172Z,111.17
2019-02-18T17:28:33.732Z,115.67
2019-02-18T17:31:07.113Z,111.87
2019-02-18T17:33:40.790Z,116.63
2019-02-18T17:36:12.037Z,124.47
2019-02-18T17:38:44.267Z,113.47
2019-02-18T17:41:17.260Z,123.93
2019-02-18T17:43:52.974Z,128.33
2019-02-18T17:46:25.930Z,128.90
2019-02-18T17:48:58.106Z,120.23
2019-02-18T17:51:33.998Z,135.70
2019-02-18T17:54:04.764Z,130.10
2019-02-18T17:56:35.907Z,127.07
2019-02-18T17:59:12.362Z,125.87
2019-02-18T18:01:46.642Z,128.23
2019-02-18T18:04:20.259Z,123.90
2019-02-18T18:06:51.165Z,129.67
2019-02-18T18:09:22.994Z,127.67
2019-02-18T18:11:57.320Z,119.60
2019-02-18T18:14:32.150Z,120.77
2019-02-18T18:17:03.798Z,126.20
2019-02-18T18:19:36.492Z,136.63
2019-02-18T18:22:07.941Z,131.50
2019-02-18T18:24:40.908Z,132.90
2019-02-18T18:27:12.341Z,131.43
2019-02-18T18:29:43.353Z,130.93
2019-02-18T18:32:14.416Z,132.57
2019-02-18T18:34:45.126Z,138.37
2019-02-18T18:37:20.777Z,134.47
2019-02-18T18:39:53.401Z,142.37
2019-02-18T18:42:24.889Z,130.50
2019-02-18T18:45:04.947Z,121.77
2019-02-18T18:47:54.367Z,125.67
2019-02-18T18:50:35.312Z,113.60
2019-02-18T18:53:13.376Z,126.40
2019-02-18T18:55:46.086Z,126.07
2019-02-18T18:58:23.920Z,124.57
2019-02-18T19:00:55.712Z,125.87
2019-02-18T19:03:34.410Z,130.60
2019-02-18T19:06:13.020Z,131.30
2019-02-18T19:08:52.900Z,125.50
2019-02-18T19:11:25.453Z,141.97
2019-02-18T19:13:56.017Z,130.10
2019-02-18T19:16:34.609Z,138.70
2019-02-18T19:19:44.881Z,139.77
2019-02-18T19:22:33.549Z,157.17
2019-02-18T19:25:05.327Z,150.23
2019-02-18T19:30:33.612Z,159.10
2019-02-18T19:33:12.560Z,168.60
2019-02-18T19:35:52.864Z,174.80
2019-02-18T19:38:27.370Z,179.53
2019-02-18T19:40:58.684Z,189.77
2019-02-18T19:43:32.353Z,188.57
2019-02-18T19:46:13.238Z,205.80
2019-02-18T19:48:50.262Z,196.67
2019-02-18T19:51:33.676Z,203.13
2019-02-18T19:54:39.096Z,201.67
2019-02-18T19:57:14.156Z,203.10
2019-02-18T19:59:48.477Z,193.77
2019-02-18T20:02:26.876Z,211.90
2019-02-18T20:05:02.914Z,217.40
2019-02-18T20:07:37.658Z,223.63
2019-02-18T20:10:10.317Z,203.73
2019-02-18T20:12:43.845Z,198.70
2019-02-18T20:17:54.531Z,219.20
2019-02-18T20:20:27.322Z,209.07
2019-02-18T20:22:58.817Z,212.10
2019-02-18T20:25:30.843Z,214.07
2019-02-18T20:28:03.020Z,233.57
2019-02-18T20:30:33.639Z,220.17
2019-02-18T20:33:04.977Z,232.47
2019-02-18T20:35:40.658Z,229.63
2019-02-18T20:38:12.665Z,231.60
2019-02-18T20:40:44.125Z,218.43
2019-02-18T20:43:15.766Z,219.13
2019-02-18T20:45:47.316Z,231.13
2019-02-18T20:48:19.003Z,221.03
2019-02-18T20:50:51.037Z,207.47
2019-02-18T20:53:22.401Z,226.43
2019-02-18T20:55:53.790Z,222.33
2019-02-18T20:58:25.157Z,205.37
2019-02-18T21:00:57.339Z,212.97
2019-02-18T21:03:28.726Z,197.77
2019-02-18T21:06:00.230Z,211.93
2019-02-18T21:08:32.945Z,207.53
2019-02-18T21:11:03.937Z,206.77
2019-02-18T21:13:35.014Z,222.23
2019-02-18T21:16:06.220Z,215.23
2019-02-18T21:18:38.117Z,220.83
2019-02-18T21:21:09.900Z,199.87
2019-02-18T21:23:41.725Z,207.23
2019-02-18T21:26:13.402Z,206.13
2019-02-18T21:28:44.743Z,214.07
2019-02-18T21:31:15.441Z,201.17
2019-02-18T21:33:46.815Z,206.00
2019-02-18T21:36:18.269Z,205.77
2019-02-18T21:38:49.189Z,212.43
2019-02-18T21:41:20.349Z,203.00
2019-02-18T21:43:51.648Z,190.03
2019-02-18T21:46:22.947Z,184.47
2019-02-18T21:48:54.459Z,179.57
2019-02-18T21:51:25.241Z,177.50
2019-02-18T21:53:56.881Z,177.47
2019-02-18T21:56:28.383Z,170.30
2019-02-18T21:58:59.899Z,174.27
2019-02-18T22:01:31.763Z,183.07
2019-02-18T22:04:02.807Z,167.07
2019-02-18T22:06:35.002Z,162.47
2019-02-18T22:09:07.546Z,174.53
2019-02-18T22:11:41.281Z,175.23
2019-02-18T22:14:13.219Z,191.17
2019-02-18T22:16:43.996Z,187.53
2019-02-18T22:19:15.646Z,191.13
2019-02-18T22:21:46.473Z,206.47
2019-02-18T22:24:17.765Z,204.00
2019-02-18T22:26:49.058Z,207.63
2019-02-18T22:29:20.085Z,203.27
2019-02-18T22:31:51.325Z,216.87
2019-02-18T22:34:22.005Z,232.77
2019-02-18T22:36:53.198Z,228.80
2019-02-18T22:39:26.917Z,225.87
2019-02-18T22:41:58.955Z,242.33
2019-02-18T22:44:30.455Z,243.17
2019-02-18T22:47:01.687Z,243.00
2019-02-18T22:49:32.473Z,270.03
2019-02-18T22:52:03.348Z,280.43
2019-02-18T22:54:35.354Z,297.13
2019-02-18T22:57:06.047Z,288.87
2019-02-18T22:59:37.307Z,297.37
2019-02-18T23:02:08.607Z,311.40
2019-02-18T23:04:41.276Z,315.43
2019-02-18T23:07:12.979Z,312.17
2019-02-18T23:09:46.069Z,321.63
2019-02-18T23:12:17.255Z,310.37
2019-02-18T23:14:50.668Z,314.67
2019-02-18T23:17:22.081Z,295.70
2019-02-18T23:19:53.629Z,298.30
2019-02-18T23:22:28.021Z,277.87
2019-02-18T23:24:59.743Z,281.17
2019-02-18T23:27:31.436Z,284.63
2019-02-18T23:30:03.316Z,267.83
2019-02-18T23:32:35.917Z,274.93
2019-02-18T23:35:07.174Z,277.50
2019-02-18T23:37:41.244Z,260.67
2019-02-18T23:40:13.746Z,263.87
2019-02-18T23:42:46.336Z,268.30
2019-02-18T23:45:16.862Z,284.47
2019-02-18T23:47:48.093Z,280.10
2019-02-18T23:50:19.857Z,273.17
2019-02-18T23:52:51.472Z,275.50
2019-02-18T23:55:22.880Z,279.37
2019-02-18T23:57:54.569Z,262.30
